createdAt,value
2022-10-13T00:00:49.223Z,75.66
2022-10-13T00:03:37.819Z,75.79
2022-10-13T00:06:11.412Z,75.60
2022-10-13T00:08:46.813Z,75.29
2022-10-13T00:11:20.846Z,75.40
2022-10-13T00:13:56.962Z,75.30
2022-10-13T00:16:30.648Z,75.45
2022-10-13T00:19:03.233Z,75.46
2022-10-13T00:21:35.530Z,75.60
2022-10-13T00:24:11.083Z,75.58
2022-10-13T00:26:44.004Z,75.72
2022-10-13T00:29:16.818Z,75.89
2022-10-13T00:31:48.487Z,75.59
2022-10-13T00:34:20.087Z,76.00
2022-10-13T00:36:51.748Z,75.85
2022-10-13T00:39:23.785Z,75.90
2022-10-13T00:41:58.650Z,76.06
2022-10-13T00:44:59.726Z,76.22
2022-10-13T00:47:35.778Z,76.32
2022-10-13T00:50:13.059Z,76.17
2022-10-13T00:52:45.932Z,75.99
2022-10-13T00:55:21.783Z,76.10
2022-10-13T00:57:56.109Z,76.70
2022-10-13T01:00:35.866Z,76.71
2022-10-13T01:03:07.896Z,77.19
2022-10-13T01:05:41.800Z,76.86
2022-10-13T01:08:15.080Z,76.88
2022-10-13T01:10:59.940Z,76.90
2022-10-13T01:13:41.849Z,76.89
2022-10-13T01:16:19.118Z,77.38
2022-10-13T01:18:59.307Z,77.24
2022-10-13T01:21:42.793Z,77.22
2022-10-13T01:24:48.142Z,77.21
2022-10-13T01:27:52.860Z,77.23
2022-10-13T01:30:25.421Z,77.02
2022-10-13T01:33:11.390Z,77.18
2022-10-13T01:35:57.929Z,77.03
2022-10-13T01:38:40.477Z,77.24
2022-10-13T01:41:20.466Z,77.17
2022-10-13T01:43:56.545Z,76.93
2022-10-13T01:46:32.170Z,77.52
2022-10-13T01:49:10.583Z,77.31
2022-10-13T01:51:44.634Z,77.29
2022-10-13T01:54:17.186Z,77.61
2022-10-13T01:56:57.173Z,78.64
2022-10-13T01:59:36.174Z,78.21
2022-10-13T02:02:18.341Z,78.07
2022-10-13T02:04:58.558Z,78.13
2022-10-13T02:07:37.488Z,78.39
2022-10-13T02:10:15.713Z,78.37
2022-10-13T02:12:54.562Z,77.84
2022-10-13T02:15:31.414Z,77.70
2022-10-13T02:18:07.896Z,77.08
2022-10-13T02:20:41.400Z,77.32
2022-10-13T02:23:16.641Z,77.28
2022-10-13T02:25:51.696Z,77.27
2022-10-13T02:28:25.246Z,76.93
2022-10-13T02:30:58.009Z,77.16
2022-10-13T02:33:30.604Z,77.17
2022-10-13T02:36:03.317Z,77.11
2022-10-13T02:38:35.750Z,77.15
2022-10-13T02:41:08.857Z,77.25
2022-10-13T02:43:40.922Z,77.32
2022-10-13T02:46:13.197Z,77.39
2022-10-13T02:48:46.414Z,77.82
2022-10-13T02:51:18.668Z,77.99
2022-10-13T02:53:51.025Z,77.92
2022-10-13T02:56:23.147Z,78.09
2022-10-13T02:58:54.829Z,78.36
2022-10-13T03:01:27.122Z,78.44
2022-10-13T03:04:00.678Z,78.48
2022-10-13T03:06:32.463Z,78.81
2022-10-13T03:09:04.777Z,78.74
2022-10-13T03:11:36.570Z,78.73
2022-10-13T03:14:09.884Z,78.66
2022-10-13T03:16:42.443Z,78.91
2022-10-13T03:19:15.305Z,78.97
2022-10-13T03:21:47.498Z,78.58
2022-10-13T03:24:19.857Z,78.22
2022-10-13T03:26:54.536Z,78.18
2022-10-13T03:29:27.024Z,78.25
2022-10-13T03:31:59.639Z,78.38
2022-10-13T03:34:31.544Z,78.66
2022-10-13T03:37:04.849Z,78.61
2022-10-13T03:39:39.900Z,78.68
2022-10-13T03:42:13.917Z,78.80
2022-10-13T03:44:46.134Z,78.84
2022-10-13T03:47:17.785Z,78.92
2022-10-13T03:49:49.452Z,78.87
2022-10-13T03:52:22.178Z,78.92
2022-10-13T03:54:54.785Z,79.12
2022-10-13T03:57:27.229Z,79.20
2022-10-13T03:59:59.163Z,78.91
2022-10-13T04:02:30.082Z,78.94
2022-10-13T04:05:03.083Z,79.03
2022-10-13T04:07:34.804Z,79.17
2022-10-13T04:10:12.146Z,79.95
2022-10-13T04:12:45.154Z,79.59
2022-10-13T04:15:17.694Z,80.10
2022-10-13T04:17:50.943Z,80.77
2022-10-13T04:20:24.211Z,80.82
2022-10-13T04:22:58.238Z,80.86
2022-10-13T04:25:29.928Z,81.28
2022-10-13T04:28:01.560Z,80.89
2022-10-13T04:30:35.995Z,80.81
2022-10-13T04:33:08.174Z,81.60
2022-10-13T04:35:43.938Z,81.89
2022-10-13T04:38:16.334Z,81.82
2022-10-13T04:40:50.341Z,82.17
2022-10-13T04:43:23.320Z,81.87
2022-10-13T04:46:00.877Z,81.78
2022-10-13T04:48:33.318Z,81.73
2022-10-13T04:51:08.091Z,81.71
2022-10-13T04:53:40.801Z,82.28
2022-10-13T04:56:17.329Z,81.55
2022-10-13T04:58:50.716Z,81.23
2022-10-13T05:01:25.390Z,81.22
2022-10-13T05:03:59.028Z,81.64
2022-10-13T05:06:32.890Z,81.23
2022-10-13T05:09:05.630Z,81.06
2022-10-13T05:11:36.584Z,81.04
2022-10-13T05:14:08.405Z,80.87
2022-10-13T05:16:40.089Z,81.17
2022-10-13T05:19:12.153Z,81.49
2022-10-13T05:21:46.107Z,81.26
2022-10-13T05:24:17.898Z,81.21
2022-10-13T05:26:52.345Z,81.18
2022-10-13T05:29:24.294Z,80.68
2022-10-13T05:31:56.249Z,81.00
2022-10-13T05:34:27.950Z,81.21
2022-10-13T05:37:00.509Z,80.83
2022-10-13T05:39:32.929Z,80.83
2022-10-13T05:42:04.745Z,80.72
2022-10-13T05:44:39.691Z,80.82
2022-10-13T05:47:11.981Z,80.75
2022-10-13T05:49:44.063Z,80.88
2022-10-13T05:52:15.943Z,81.15
2022-10-13T05:54:53.373Z,81.10
2022-10-13T05:57:32.189Z,80.91
2022-10-13T06:00:09.091Z,81.25
2022-10-13T06:02:47.880Z,81.11
2022-10-13T06:05:22.824Z,81.25
2022-10-13T06:07:58.149Z,81.54
2022-10-13T06:10:30.149Z,81.35
2022-10-13T06:13:02.965Z,81.11
2022-10-13T06:15:34.732Z,80.98
2022-10-13T06:18:11.466Z,81.34
2022-10-13T06:20:43.944Z,81.03
2022-10-13T06:23:18.698Z,80.88
2022-10-13T06:25:52.157Z,81.11
2022-10-13T06:28:24.246Z,81.31
2022-10-13T06:30:57.239Z,81.43
2022-10-13T06:33:29.009Z,81.43
2022-10-13T06:36:04.062Z,80.92
2022-10-13T06:38:35.988Z,80.32
2022-10-13T06:41:08.500Z,79.91
2022-10-13T06:43:41.709Z,79.66
2022-10-13T06:46:15.967Z,79.49
2022-10-13T06:48:49.764Z,79.35
2022-10-13T06:51:21.813Z,79.12
2022-10-13T06:53:56.369Z,78.73
2022-10-13T06:56:31.808Z,78.77
2022-10-13T06:59:03.806Z,78.42
2022-10-13T07:01:41.353Z,78.29
2022-10-13T07:04:18.083Z,78.55
2022-10-13T07:06:50.888Z,77.91
2022-10-13T07:09:21.308Z,77.02
2022-10-13T07:11:53.654Z,76.61
2022-10-13T07:14:25.660Z,76.64
2022-10-13T07:16:58.270Z,76.18
2022-10-13T07:19:30.272Z,76.11
2022-10-13T07:22:02.228Z,75.96
2022-10-13T07:24:34.279Z,75.66
2022-10-13T07:27:19.123Z,75.36
2022-10-13T07:29:51.226Z,74.82
2022-10-13T07:32:23.406Z,75.01
2022-10-13T07:34:56.379Z,74.53
2022-10-13T07:37:28.926Z,74.36
2022-10-13T07:40:01.136Z,74.43
2022-10-13T07:42:34.172Z,74.38
2022-10-13T07:45:06.828Z,74.05
2022-10-13T07:47:38.628Z,73.95
2022-10-13T07:50:11.855Z,73.51
2022-10-13T07:52:44.255Z,73.67
2022-10-13T07:55:17.994Z,73.59
2022-10-13T07:57:50.245Z,73.33
2022-10-13T08:00:22.305Z,73.21
2022-10-13T08:02:54.501Z,72.99
2022-10-13T08:05:26.464Z,72.84
2022-10-13T08:07:58.760Z,72.38
2022-10-13T08:10:31.159Z,72.15
2022-10-13T08:13:03.204Z,71.96
2022-10-13T08:15:34.875Z,72.23
2022-10-13T08:18:07.077Z,72.15
2022-10-13T08:20:43.910Z,71.66
2022-10-13T08:23:16.801Z,71.03
2022-10-13T08:30:29.217Z,70.05
2022-10-13T08:33:01.093Z,69.35
2022-10-13T08:35:34.772Z,68.79
2022-10-13T08:38:07.575Z,68.70
2022-10-13T08:40:40.338Z,68.67
2022-10-13T08:43:18.469Z,68.38
2022-10-13T08:45:52.334Z,68.18
2022-10-13T08:48:27.726Z,67.63
2022-10-13T08:51:02.162Z,67.34
2022-10-13T08:53:38.203Z,66.56
2022-10-13T08:56:16.451Z,66.25
2022-10-13T08:58:52.981Z,66.13
2022-10-13T09:01:29.032Z,65.60
2022-10-13T09:04:14.995Z,65.45
2022-10-13T09:06:55.895Z,64.68
2022-10-13T09:09:27.927Z,64.20
2022-10-13T09:12:01.618Z,64.22
2022-10-13T09:14:38.323Z,64.15
2022-10-13T09:17:18.871Z,64.14
2022-10-13T09:20:01.573Z,64.14
2022-10-13T09:22:38.380Z,63.35
2022-10-13T09:25:26.790Z,63.06
2022-10-13T09:28:01.778Z,62.50
2022-10-13T09:30:38.301Z,62.53
2022-10-13T09:33:27.677Z,61.90
2022-10-13T09:36:16.959Z,61.75
2022-10-13T09:39:09.660Z,61.09
2022-10-13T09:41:44.118Z,60.69
2022-10-13T09:44:18.079Z,60.44
2022-10-13T09:46:53.922Z,59.80
2022-10-13T09:49:35.676Z,59.67
2022-10-13T09:52:19.954Z,59.60
2022-10-13T09:54:54.029Z,59.19
2022-10-13T09:57:32.739Z,58.28
2022-10-13T10:00:13.965Z,58.03
2022-10-13T10:02:55.057Z,57.72
2022-10-13T10:05:39.251Z,57.13
2022-10-13T10:08:20.559Z,56.80
2022-10-13T10:10:55.112Z,56.58
2022-10-13T10:13:28.061Z,55.89
2022-10-13T10:16:08.755Z,55.48
2022-10-13T10:18:48.035Z,55.36
2022-10-13T10:21:32.441Z,55.11
2022-10-13T10:24:18.575Z,54.84
2022-10-13T10:26:56.437Z,54.39
2022-10-13T10:29:38.517Z,54.14
2022-10-13T10:32:34.454Z,53.64
2022-10-13T10:35:17.214Z,53.47
2022-10-13T10:38:02.831Z,53.12
2022-10-13T10:40:41.621Z,52.80
2022-10-13T10:43:27.729Z,52.34
2022-10-13T10:46:01.370Z,52.18
2022-10-13T10:48:39.868Z,52.14
2022-10-13T10:51:13.262Z,51.44
2022-10-13T10:53:55.781Z,51.24
2022-10-13T10:56:33.514Z,51.07
2022-10-13T10:59:26.790Z,50.80
2022-10-13T11:02:12.064Z,50.29
2022-10-13T11:04:45.589Z,50.45
2022-10-13T11:07:57.927Z,50.50
2022-10-13T11:10:32.107Z,50.19
2022-10-13T11:13:25.558Z,49.85
2022-10-13T11:16:21.133Z,49.56
2022-10-13T11:19:07.948Z,49.56
2022-10-13T11:22:19.095Z,49.56
2022-10-13T11:24:57.225Z,49.34
2022-10-13T11:27:40.707Z,48.78
2022-10-13T11:30:42.637Z,48.92
2022-10-13T11:33:53.985Z,48.88
2022-10-13T11:36:36.296Z,48.99
2022-10-13T11:39:36.925Z,48.68
2022-10-13T11:42:22.343Z,48.40
2022-10-13T11:44:58.332Z,48.29
2022-10-13T11:48:05.004Z,47.72
2022-10-13T11:50:44.214Z,47.73
2022-10-13T11:53:20.412Z,47.76
2022-10-13T11:55:55.458Z,48.40
2022-10-13T11:58:30.156Z,48.38
2022-10-13T12:01:04.417Z,48.46
2022-10-13T12:03:38.053Z,47.98
2022-10-13T12:06:33.198Z,47.57
2022-10-13T12:09:16.395Z,47.59
2022-10-13T12:11:57.043Z,47.78
2022-10-13T12:17:29.285Z,47.87
2022-10-13T12:20:21.323Z,47.82
2022-10-13T12:22:54.525Z,47.73
2022-10-13T12:25:27.937Z,47.47
2022-10-13T12:28:03.256Z,47.25
2022-10-13T12:30:37.032Z,47.06
2022-10-13T12:33:24.206Z,47.03
2022-10-13T12:35:56.257Z,46.92
2022-10-13T12:38:29.071Z,47.11
2022-10-13T12:41:01.649Z,46.99
2022-10-13T12:43:34.454Z,47.25
2022-10-13T12:46:09.327Z,47.57
2022-10-13T12:48:41.062Z,47.73
2022-10-13T12:51:23.658Z,47.58
2022-10-13T12:53:55.695Z,47.99
2022-10-13T12:56:32.222Z,48.31
2022-10-13T12:59:04.695Z,48.92
2022-10-13T13:01:37.982Z,49.11
2022-10-13T13:04:28.610Z,49.85
2022-10-13T13:07:02.360Z,49.97
2022-10-13T13:09:38.863Z,50.25
2022-10-13T13:12:27.415Z,50.46
2022-10-13T13:15:00.718Z,50.70
2022-10-13T13:20:29.794Z,51.07
2022-10-13T13:23:02.099Z,51.08
2022-10-13T13:25:33.764Z,51.28
2022-10-13T13:28:14.027Z,51.95
2022-10-13T13:30:46.418Z,51.52
2022-10-13T13:33:18.059Z,51.84
2022-10-13T13:35:51.166Z,51.99
2022-10-13T13:38:23.253Z,51.92
2022-10-13T13:40:54.805Z,51.99
2022-10-13T13:43:26.601Z,51.89
2022-10-13T13:45:58.529Z,52.21
2022-10-13T13:48:30.320Z,52.57
2022-10-13T13:51:03.250Z,52.34
2022-10-13T13:53:34.893Z,52.08
2022-10-13T13:56:12.602Z,52.09
2022-10-13T13:58:44.669Z,52.39
2022-10-13T14:01:17.311Z,52.26
2022-10-13T14:03:49.037Z,52.45
2022-10-13T14:06:22.998Z,52.13
2022-10-13T14:08:54.754Z,51.94
2022-10-13T14:11:26.478Z,51.44
2022-10-13T14:14:01.884Z,51.59
2022-10-13T14:16:33.840Z,51.35
2022-10-13T14:19:08.708Z,51.38
2022-10-13T14:21:40.416Z,51.72
2022-10-13T14:24:15.145Z,51.49
2022-10-13T14:26:46.967Z,51.43
2022-10-13T14:29:19.113Z,51.55
2022-10-13T14:31:51.767Z,51.63
2022-10-13T14:34:22.908Z,51.81
2022-10-13T14:36:56.056Z,52.45
2022-10-13T14:39:28.616Z,52.72
2022-10-13T14:42:00.274Z,53.00
2022-10-13T14:44:32.049Z,53.23
2022-10-13T14:47:03.734Z,53.97
2022-10-13T14:49:35.606Z,54.18
2022-10-13T14:52:07.691Z,54.34
2022-10-13T14:54:43.890Z,54.67
2022-10-13T14:57:16.532Z,54.90
2022-10-13T14:59:48.549Z,54.78
2022-10-13T15:02:20.214Z,55.01
2022-10-13T15:04:58.965Z,54.96
2022-10-13T15:07:30.709Z,55.12
2022-10-13T15:10:06.331Z,55.65
2022-10-13T15:12:39.458Z,55.75
2022-10-13T15:15:12.406Z,55.69
2022-10-13T15:17:44.011Z,55.89
2022-10-13T15:20:15.826Z,56.09
2022-10-13T15:22:47.871Z,56.25
2022-10-13T15:25:18.498Z,56.71
2022-10-13T15:27:50.119Z,56.98
2022-10-13T15:30:21.941Z,57.38
2022-10-13T15:32:53.850Z,57.53
2022-10-13T15:35:31.262Z,57.51
2022-10-13T15:38:03.852Z,57.57
2022-10-13T15:40:39.501Z,58.08
2022-10-13T15:43:11.338Z,58.14
2022-10-13T15:45:43.438Z,58.43
2022-10-13T15:48:15.956Z,58.49
2022-10-13T15:50:47.699Z,58.76
2022-10-13T15:53:19.708Z,58.94
2022-10-13T15:55:51.525Z,59.08
2022-10-13T15:58:23.015Z,59.49
2022-10-13T16:00:54.705Z,59.47
2022-10-13T16:03:29.730Z,59.73
2022-10-13T16:06:06.258Z,60.02
2022-10-13T16:08:39.651Z,60.67
2022-10-13T16:11:12.180Z,61.22
2022-10-13T16:13:46.588Z,61.37
2022-10-13T16:16:19.286Z,61.46
2022-10-13T16:18:51.800Z,61.39
2022-10-13T16:21:25.996Z,61.43
2022-10-13T16:23:59.893Z,61.72
2022-10-13T16:26:31.821Z,61.86
2022-10-13T16:29:03.737Z,62.11
2022-10-13T16:31:35.383Z,62.14
2022-10-13T16:34:08.032Z,62.21
2022-10-13T16:36:39.680Z,62.26
2022-10-13T16:39:11.305Z,62.47
2022-10-13T16:41:45.033Z,62.60
2022-10-13T16:44:16.939Z,62.68
2022-10-13T16:46:49.748Z,62.84
2022-10-13T16:49:20.512Z,63.27
2022-10-13T16:51:52.420Z,63.97
2022-10-13T16:54:24.137Z,63.70
2022-10-13T16:56:55.756Z,63.73
2022-10-13T16:59:28.923Z,63.74
2022-10-13T17:02:01.087Z,63.62
2022-10-13T17:04:32.849Z,63.62
2022-10-13T17:07:05.290Z,64.01
2022-10-13T17:09:37.297Z,63.74
2022-10-13T17:12:09.694Z,63.77
2022-10-13T17:14:41.715Z,63.94
2022-10-13T17:17:13.406Z,63.83
2022-10-13T17:19:45.194Z,64.35
2022-10-13T17:22:17.018Z,64.19
2022-10-13T17:24:49.288Z,64.37
2022-10-13T17:27:21.375Z,64.35
2022-10-13T17:29:55.148Z,64.61
2022-10-13T17:32:27.326Z,64.74
2022-10-13T17:34:58.970Z,64.72
2022-10-13T17:37:33.501Z,64.79
2022-10-13T17:40:05.878Z,65.03
2022-10-13T17:42:38.546Z,64.80
2022-10-13T17:45:09.907Z,64.78
2022-10-13T17:47:47.896Z,64.97
2022-10-13T17:50:20.207Z,65.04
2022-10-13T17:52:54.191Z,64.93
2022-10-13T17:55:26.386Z,65.16
2022-10-13T17:57:57.915Z,64.83
2022-10-13T18:00:29.551Z,64.98
2022-10-13T18:03:01.208Z,64.76
2022-10-13T18:05:34.850Z,64.75
2022-10-13T18:08:07.286Z,65.04
2022-10-13T18:11:03.607Z,65.06
2022-10-13T18:13:32.215Z,65.23
2022-10-13T18:16:09.853Z,65.47
2022-10-13T18:18:41.927Z,65.51
2022-10-13T18:21:15.559Z,65.84
2022-10-13T18:23:49.999Z,65.95
2022-10-13T18:26:23.951Z,65.81
2022-10-13T18:28:58.252Z,65.96
2022-10-13T18:31:32.124Z,66.44
2022-10-13T18:34:06.234Z,66.18
2022-10-13T18:36:39.760Z,66.16
2022-10-13T18:39:15.936Z,66.16
2022-10-13T18:41:51.111Z,65.92
2022-10-13T18:44:24.947Z,66.09
2022-10-13T18:46:57.102Z,65.95
2022-10-13T18:49:33.944Z,65.63
2022-10-13T18:52:06.117Z,65.65
2022-10-13T18:54:41.330Z,65.50
2022-10-13T18:57:16.187Z,66.35
2022-10-13T18:59:49.208Z,66.32
2022-10-13T19:02:21.450Z,66.46
2022-10-13T19:04:53.202Z,66.19
2022-10-13T19:07:25.312Z,66.31
2022-10-13T19:09:57.702Z,66.34
2022-10-13T19:12:29.457Z,66.26
2022-10-13T19:15:01.490Z,66.50
2022-10-13T19:17:33.704Z,66.97
2022-10-13T19:20:06.629Z,67.39
2022-10-13T19:22:38.955Z,67.87
2022-10-13T19:25:12.507Z,68.14
2022-10-13T19:27:44.519Z,68.49
2022-10-13T19:30:17.631Z,68.66
2022-10-13T19:32:51.013Z,68.65
2022-10-13T19:35:22.957Z,68.64
2022-10-13T19:37:55.400Z,68.97
2022-10-13T19:40:29.911Z,69.63
2022-10-13T19:43:01.871Z,69.34
2022-10-13T19:45:38.418Z,69.60
2022-10-13T19:48:13.093Z,69.74
2022-10-13T19:50:47.169Z,69.97
2022-10-13T19:53:21.368Z,70.14
2022-10-13T19:55:51.601Z,70.02
2022-10-13T19:58:23.734Z,70.13
2022-10-13T20:00:56.192Z,69.98
2022-10-13T20:03:28.102Z,70.00
2022-10-13T20:06:00.032Z,69.96
2022-10-13T20:08:32.085Z,70.09
2022-10-13T20:11:08.448Z,70.13
2022-10-13T20:13:40.358Z,70.02
2022-10-13T20:16:14.499Z,70.17
2022-10-13T20:18:46.708Z,70.48
2022-10-13T20:21:19.426Z,70.51
2022-10-13T20:23:49.545Z,70.48
2022-10-13T20:26:21.942Z,70.69
2022-10-13T20:28:58.385Z,70.70
2022-10-13T20:31:30.489Z,70.91
2022-10-13T20:34:02.243Z,71.07
2022-10-13T20:36:38.864Z,71.33
2022-10-13T20:39:11.223Z,71.79
2022-10-13T20:41:43.788Z,71.86
2022-10-13T20:44:16.249Z,72.16
2022-10-13T20:46:48.116Z,72.08
2022-10-13T20:49:19.796Z,72.04
2022-10-13T20:51:51.462Z,71.86
2022-10-13T20:54:23.656Z,71.96
2022-10-13T20:56:57.858Z,71.79
2022-10-13T20:59:29.496Z,72.16
2022-10-13T21:02:01.149Z,72.35
2022-10-13T21:04:33.252Z,72.40
2022-10-13T21:07:05.183Z,72.40
2022-10-13T21:09:38.120Z,72.51
2022-10-13T21:12:10.089Z,72.39
2022-10-13T21:14:41.667Z,72.33
2022-10-13T21:17:13.219Z,72.58
2022-10-13T21:19:45.689Z,73.09
2022-10-13T21:22:17.963Z,73.64
2022-10-13T21:24:50.373Z,73.95
2022-10-13T21:27:22.744Z,73.87
2022-10-13T21:29:54.586Z,73.65
2022-10-13T21:32:26.463Z,73.67
2022-10-13T21:34:58.088Z,73.61
2022-10-13T21:37:29.988Z,73.76
2022-10-13T21:40:04.550Z,73.84
2022-10-13T21:42:36.902Z,73.68
2022-10-13T21:45:10.636Z,73.23
2022-10-13T21:47:42.373Z,73.29
2022-10-13T21:50:14.286Z,74.56
2022-10-13T21:52:49.790Z,74.16
2022-10-13T21:55:21.534Z,74.32
2022-10-13T21:57:56.610Z,74.54
2022-10-13T22:00:26.699Z,74.36
2022-10-13T22:02:59.419Z,74.56
2022-10-13T22:05:31.418Z,74.57
2022-10-13T22:08:03.219Z,74.19
2022-10-13T22:10:35.129Z,73.97
2022-10-13T22:13:07.162Z,74.10
2022-10-13T22:15:38.793Z,74.43
2022-10-13T22:18:10.725Z,74.23
2022-10-13T22:20:42.296Z,74.36
2022-10-13T22:23:13.818Z,74.62
2022-10-13T22:25:49.210Z,74.62
2022-10-13T22:28:21.583Z,74.73
2022-10-13T22:30:53.844Z,74.63
2022-10-13T22:33:25.432Z,74.43
2022-10-13T22:35:59.936Z,74.35
2022-10-13T22:38:31.778Z,74.74
2022-10-13T22:41:08.251Z,74.60
2022-10-13T22:43:39.963Z,75.01
2022-10-13T22:46:19.716Z,74.96
2022-10-13T22:48:51.751Z,75.18
2022-10-13T22:51:25.708Z,75.29
2022-10-13T22:53:58.484Z,75.10
2022-10-13T22:56:29.657Z,75.20
2022-10-13T22:59:03.403Z,75.20
2022-10-13T23:01:35.737Z,75.52
2022-10-13T23:04:08.069Z,75.98
2022-10-13T23:06:39.657Z,76.04
2022-10-13T23:09:14.616Z,76.15
2022-10-13T23:11:46.378Z,76.92
2022-10-13T23:14:24.371Z,77.03
2022-10-13T23:16:56.284Z,77.19
2022-10-13T23:19:29.016Z,77.58
2022-10-13T23:22:01.014Z,77.46
2022-10-13T23:24:33.362Z,77.72
2022-10-13T23:27:05.303Z,77.65
2022-10-13T23:29:37.037Z,77.98
2022-10-13T23:32:10.039Z,77.97
2022-10-13T23:34:42.321Z,78.29
2022-10-13T23:37:15.058Z,78.76
2022-10-13T23:39:46.825Z,78.87
2022-10-13T23:42:19.834Z,79.35
2022-10-13T23:44:51.787Z,79.38
2022-10-13T23:47:23.818Z,79.17
2022-10-13T23:49:55.850Z,79.15
2022-10-13T23:52:27.810Z,78.91
2022-10-13T23:54:59.314Z,79.29
2022-10-13T23:57:33.355Z,79.33
